Prospector, Canada
Current Conditions -  °F | °C
As of 8:00 PM on Friday 19 Dec 2014 (Local Time) from CYQD Reporting Station
Light Snow Light Snow  
Wind Chill: 11°   Ceiling: 600
Heat Index: 18°   Visibility: 4mi
Dew Point: 18°   Wind: 5mph
Humidity: 100%   Direction: 150°SSE
Pressure: 30"   Gusts: NA
Location:  52.95°N, 101.27°W
Report Text: CYQD 200200Z 15004KT 4SM -FZDZ -SG BR FEW004 OVC006 M08/M08 A3000 RMK SF1ST7 PCPN VRY LGT FROIN SLP180
Loading
Personal Weather Stations






























Interactive Weather Map New forecast layout! Learn more

10-Day Weather Forecast

Advertisements
Track Severe Weather on mobile